sensor_id;sensor_type;location;lat;lon;timestamp;temperature;humidity
18823;DHT22;9540;51.550;7.980;2022-07-23T00:00:16;15.70;99.90
18823;DHT22;9540;51.550;7.980;2022-07-23T00:02:43;15.70;99.90
18823;DHT22;9540;51.550;7.980;2022-07-23T00:05:10;15.70;99.90
18823;DHT22;9540;51.550;7.980;2022-07-23T00:07:39;15.70;99.90
18823;DHT22;9540;51.550;7.980;2022-07-23T00:10:06;15.60;99.90
18823;DHT22;9540;51.550;7.980;2022-07-23T00:12:34;15.60;99.90
18823;DHT22;9540;51.550;7.980;2022-07-23T00:15:03;15.60;99.90
18823;DHT22;9540;51.550;7.980;2022-07-23T00:17:30;15.60;99.90
18823;DHT22;9540;51.550;7.980;2022-07-23T00:19:58;15.60;99.90
18823;DHT22;9540;51.550;7.980;2022-07-23T00:22:25;15.60;99.90
18823;DHT22;9540;51.550;7.980;2022-07-23T00:24:54;15.60;99.90
18823;DHT22;9540;51.550;7.980;2022-07-23T00:27:21;15.50;99.90
18823;DHT22;9540;51.550;7.980;2022-07-23T00:29:48;15.50;99.90
18823;DHT22;9540;51.550;7.980;2022-07-23T00:32:15;15.40;99.90
18823;DHT22;9540;51.550;7.980;2022-07-23T00:34:42;15.40;99.90
18823;DHT22;9540;51.550;7.980;2022-07-23T00:37:09;15.40;99.90
18823;DHT22;9540;51.550;7.980;2022-07-23T00:39:36;15.30;99.90
18823;DHT22;9540;51.550;7.980;2022-07-23T00:42:05;15.30;99.90
18823;DHT22;9540;51.550;7.980;2022-07-23T00:44:32;15.30;99.90
18823;DHT22;9540;51.550;7.980;2022-07-23T00:47:00;15.30;99.90
18823;DHT22;9540;51.550;7.980;2022-07-23T00:49:28;15.20;99.90
18823;DHT22;9540;51.550;7.980;2022-07-23T00:51:56;15.20;99.90
18823;DHT22;9540;51.550;7.980;2022-07-23T00:54:24;15.20;99.90
18823;DHT22;9540;51.550;7.980;2022-07-23T00:56:53;15.20;99.90
18823;DHT22;9540;51.550;7.980;2022-07-23T00:59:21;15.20;99.90
18823;DHT22;9540;51.550;7.980;2022-07-23T01:01:48;15.20;99.90
18823;DHT22;9540;51.550;7.980;2022-07-23T01:04:15;15.20;99.90
18823;DHT22;9540;51.550;7.980;2022-07-23T01:06:43;15.20;99.90
18823;DHT22;9540;51.550;7.980;2022-07-23T01:09:11;15.10;99.90
18823;DHT22;9540;51.550;7.980;2022-07-23T01:11:38;15.00;99.90
18823;DHT22;9540;51.550;7.980;2022-07-23T01:14:09;15.00;99.90
18823;DHT22;9540;51.550;7.980;2022-07-23T01:16:38;15.00;99.90
18823;DHT22;9540;51.550;7.980;2022-07-23T01:19:05;15.00;99.90
18823;DHT22;9540;51.550;7.980;2022-07-23T01:21:35;15.00;99.90
18823;DHT22;9540;51.550;7.980;2022-07-23T01:24:05;15.00;99.90
18823;DHT22;9540;51.550;7.980;2022-07-23T01:26:32;15.00;99.90
18823;DHT22;9540;51.550;7.980;2022-07-23T01:28:59;15.00;99.90
18823;DHT22;9540;51.550;7.980;2022-07-23T01:31:26;15.00;99.90
18823;DHT22;9540;51.550;7.980;2022-07-23T01:33:54;15.10;99.90
18823;DHT22;9540;51.550;7.980;2022-07-23T01:36:21;15.10;99.90
18823;DHT22;9540;51.550;7.980;2022-07-23T01:38:48;15.10;99.90
18823;DHT22;9540;51.550;7.980;2022-07-23T01:41:16;15.10;99.90
18823;DHT22;9540;51.550;7.980;2022-07-23T01:43:44;15.10;99.90
18823;DHT22;9540;51.550;7.980;2022-07-23T01:46:11;15.00;99.90
18823;DHT22;9540;51.550;7.980;2022-07-23T01:48:38;15.00;99.90
18823;DHT22;9540;51.550;7.980;2022-07-23T01:51:06;14.90;99.90
18823;DHT22;9540;51.550;7.980;2022-07-23T01:53:33;14.90;99.90
18823;DHT22;9540;51.550;7.980;2022-07-23T01:56:00;14.90;99.90
18823;DHT22;9540;51.550;7.980;2022-07-23T01:58:30;14.90;99.90
18823;DHT22;9540;51.550;7.980;2022-07-23T02:00:57;14.90;99.90
18823;DHT22;9540;51.550;7.980;2022-07-23T02:03:24;15.00;99.90
18823;DHT22;9540;51.550;7.980;2022-07-23T02:05:51;15.00;99.90
18823;DHT22;9540;51.550;7.980;2022-07-23T02:08:19;15.00;99.90
18823;DHT22;9540;51.550;7.980;2022-07-23T02:10:46;15.00;99.90
18823;DHT22;9540;51.550;7.980;2022-07-23T02:13:14;14.90;99.90
18823;DHT22;9540;51.550;7.980;2022-07-23T02:15:42;15.00;99.90
18823;DHT22;9540;51.550;7.980;2022-07-23T02:18:09;14.90;99.90
18823;DHT22;9540;51.550;7.980;2022-07-23T02:20:36;14.90;99.90
18823;DHT22;9540;51.550;7.980;2022-07-23T02:23:04;14.90;99.90
18823;DHT22;9540;51.550;7.980;2022-07-23T02:25:32;14.90;99.90
18823;DHT22;9540;51.550;7.980;2022-07-23T02:27:59;14.90;99.90
18823;DHT22;9540;51.550;7.980;2022-07-23T02:30:26;14.80;99.90
18823;DHT22;9540;51.550;7.980;2022-07-23T02:32:55;14.80;99.90
18823;DHT22;9540;51.550;7.980;2022-07-23T02:35:22;14.80;99.90
18823;DHT22;9540;51.550;7.980;2022-07-23T02:37:49;14.80;99.90
18823;DHT22;9540;51.550;7.980;2022-07-23T02:40:16;14.80;99.90
18823;DHT22;9540;51.550;7.980;2022-07-23T02:42:43;14.70;99.90
18823;DHT22;9540;51.550;7.980;2022-07-23T02:45:10;14.70;99.90
18823;DHT22;9540;51.550;7.980;2022-07-23T02:47:37;14.70;99.90
18823;DHT22;9540;51.550;7.980;2022-07-23T02:50:06;14.70;99.90
18823;DHT22;9540;51.550;7.980;2022-07-23T02:52:34;14.70;99.90
18823;DHT22;9540;51.550;7.980;2022-07-23T02:55:00;14.70;99.90
18823;DHT22;9540;51.550;7.980;2022-07-23T02:57:27;14.70;99.90
18823;DHT22;9540;51.550;7.980;2022-07-23T02:59:54;14.70;99.90
18823;DHT22;9540;51.550;7.980;2022-07-23T03:02:21;14.60;99.90
18823;DHT22;9540;51.550;7.980;2022-07-23T03:04:49;14.60;99.90
18823;DHT22;9540;51.550;7.980;2022-07-23T03:07:18;14.60;99.90
18823;DHT22;9540;51.550;7.980;2022-07-23T03:09:45;14.60;99.90
18823;DHT22;9540;51.550;7.980;2022-07-23T03:12:12;14.50;99.90
18823;DHT22;9540;51.550;7.980;2022-07-23T03:14:39;14.50;99.90
18823;DHT22;9540;51.550;7.980;2022-07-23T03:17:06;14.50;99.90
18823;DHT22;9540;51.550;7.980;2022-07-23T03:19:33;14.50;99.90
18823;DHT22;9540;51.550;7.980;2022-07-23T03:21:59;14.50;99.90
18823;DHT22;9540;51.550;7.980;2022-07-23T03:24:28;14.40;99.90
18823;DHT22;9540;51.550;7.980;2022-07-23T03:27:15;14.40;99.90
18823;DHT22;9540;51.550;7.980;2022-07-23T03:29:42;14.40;99.90
18823;DHT22;9540;51.550;7.980;2022-07-23T03:32:09;14.40;99.90
18823;DHT22;9540;51.550;7.980;2022-07-23T03:34:36;14.40;99.90
18823;DHT22;9540;51.550;7.980;2022-07-23T03:37:03;14.40;99.90
18823;DHT22;9540;51.550;7.980;2022-07-23T03:39:32;14.30;99.90
18823;DHT22;9540;51.550;7.980;2022-07-23T03:41:59;14.30;99.90
18823;DHT22;9540;51.550;7.980;2022-07-23T03:44:26;14.30;99.90
18823;DHT22;9540;51.550;7.980;2022-07-23T03:46:52;14.20;99.90
18823;DHT22;9540;51.550;7.980;2022-07-23T03:49:20;14.20;99.90
18823;DHT22;9540;51.550;7.980;2022-07-23T03:51:47;14.20;99.90
18823;DHT22;9540;51.550;7.980;2022-07-23T03:54:14;14.10;99.90
18823;DHT22;9540;51.550;7.980;2022-07-23T03:56:42;14.00;99.90
18823;DHT22;9540;51.550;7.980;2022-07-23T03:59:10;14.00;99.90
18823;DHT22;9540;51.550;7.980;2022-07-23T04:01:38;14.00;99.90
18823;DHT22;9540;51.550;7.980;2022-07-23T04:04:04;14.00;99.90
18823;DHT22;9540;51.550;7.980;2022-07-23T04:06:33;14.00;99.90
18823;DHT22;9540;51.550;7.980;2022-07-23T04:09:00;14.00;99.90
18823;DHT22;9540;51.550;7.980;2022-07-23T04:11:27;13.90;99.90
18823;DHT22;9540;51.550;7.980;2022-07-23T04:13:56;13.90;99.90
18823;DHT22;9540;51.550;7.980;2022-07-23T04:16:23;13.90;99.90
18823;DHT22;9540;51.550;7.980;2022-07-23T04:18:50;14.00;99.90
18823;DHT22;9540;51.550;7.980;2022-07-23T04:21:17;14.00;99.90
18823;DHT22;9540;51.550;7.980;2022-07-23T04:23:44;14.00;99.90
18823;DHT22;9540;51.550;7.980;2022-07-23T04:26:11;14.00;99.90
18823;DHT22;9540;51.550;7.980;2022-07-23T04:28:38;14.10;99.90
18823;DHT22;9540;51.550;7.980;2022-07-23T04:31:06;14.20;99.90
18823;DHT22;9540;51.550;7.980;2022-07-23T04:33:34;14.20;99.90
18823;DHT22;9540;51.550;7.980;2022-07-23T04:36:01;14.30;99.90
18823;DHT22;9540;51.550;7.980;2022-07-23T04:38:28;14.30;99.90
18823;DHT22;9540;51.550;7.980;2022-07-23T04:40:54;14.20;99.90
18823;DHT22;9540;51.550;7.980;2022-07-23T04:43:21;14.30;99.90
18823;DHT22;9540;51.550;7.980;2022-07-23T04:45:48;14.30;99.90
18823;DHT22;9540;51.550;7.980;2022-07-23T04:48:17;14.30;99.90
18823;DHT22;9540;51.550;7.980;2022-07-23T04:50:44;14.40;99.90
18823;DHT22;9540;51.550;7.980;2022-07-23T04:53:10;14.40;99.90
18823;DHT22;9540;51.550;7.980;2022-07-23T04:55:37;14.40;99.90
18823;DHT22;9540;51.550;7.980;2022-07-23T04:58:04;14.40;99.90
18823;DHT22;9540;51.550;7.980;2022-07-23T05:00:31;14.50;99.90
18823;DHT22;9540;51.550;7.980;2022-07-23T05:02:58;14.40;99.90
18823;DHT22;9540;51.550;7.980;2022-07-23T05:05:27;14.50;99.90
18823;DHT22;9540;51.550;7.980;2022-07-23T05:07:53;14.50;99.90
18823;DHT22;9540;51.550;7.980;2022-07-23T05:10:20;14.50;99.90
18823;DHT22;9540;51.550;7.980;2022-07-23T05:12:47;14.60;99.90
18823;DHT22;9540;51.550;7.980;2022-07-23T05:15:14;14.60;99.90
18823;DHT22;9540;51.550;7.980;2022-07-23T05:17:41;14.60;99.90
18823;DHT22;9540;51.550;7.980;2022-07-23T05:20:09;14.70;99.90
18823;DHT22;9540;51.550;7.980;2022-07-23T05:22:38;14.70;99.90
18823;DHT22;9540;51.550;7.980;2022-07-23T05:25:05;14.70;99.90
18823;DHT22;9540;51.550;7.980;2022-07-23T05:27:32;14.70;99.90
18823;DHT22;9540;51.550;7.980;2022-07-23T05:29:59;14.60;99.90
18823;DHT22;9540;51.550;7.980;2022-07-23T05:32:26;14.70;99.90
18823;DHT22;9540;51.550;7.980;2022-07-23T05:34:53;14.70;99.90
18823;DHT22;9540;51.550;7.980;2022-07-23T05:37:20;14.70;99.90
18823;DHT22;9540;51.550;7.980;2022-07-23T05:39:48;14.70;99.90
18823;DHT22;9540;51.550;7.980;2022-07-23T05:42:16;14.70;99.90
18823;DHT22;9540;51.550;7.980;2022-07-23T05:44:43;14.70;99.90
18823;DHT22;9540;51.550;7.980;2022-07-23T05:47:10;14.80;99.90
18823;DHT22;9540;51.550;7.980;2022-07-23T05:49:38;14.80;99.90
18823;DHT22;9540;51.550;7.980;2022-07-23T05:52:05;14.80;99.90
18823;DHT22;9540;51.550;7.980;2022-07-23T05:54:34;14.90;99.90
18823;DHT22;9540;51.550;7.980;2022-07-23T05:57:02;14.90;99.90
18823;DHT22;9540;51.550;7.980;2022-07-23T05:59:29;14.90;99.90
18823;DHT22;9540;51.550;7.980;2022-07-23T06:01:56;15.00;99.90
18823;DHT22;9540;51.550;7.980;2022-07-23T06:04:24;15.00;99.90
18823;DHT22;9540;51.550;7.980;2022-07-23T06:06:51;15.10;99.90
18823;DHT22;9540;51.550;7.980;2022-07-23T06:09:18;15.10;99.90
18823;DHT22;9540;51.550;7.980;2022-07-23T06:11:45;15.20;99.90
18823;DHT22;9540;51.550;7.980;2022-07-23T06:14:14;15.20;99.90
18823;DHT22;9540;51.550;7.980;2022-07-23T06:16:41;15.10;99.90
18823;DHT22;9540;51.550;7.980;2022-07-23T06:19:08;15.10;99.90
18823;DHT22;9540;51.550;7.980;2022-07-23T06:21:34;15.10;99.90
18823;DHT22;9540;51.550;7.980;2022-07-23T06:24:02;15.10;99.90
18823;DHT22;9540;51.550;7.980;2022-07-23T06:26:29;15.10;99.90
18823;DHT22;9540;51.550;7.980;2022-07-23T06:28:56;15.10;99.90
18823;DHT22;9540;51.550;7.980;2022-07-23T06:31:24;15.10;99.90
18823;DHT22;9540;51.550;7.980;2022-07-23T06:33:51;15.20;99.90
18823;DHT22;9540;51.550;7.980;2022-07-23T06:36:18;15.30;99.90
18823;DHT22;9540;51.550;7.980;2022-07-23T06:38:45;15.30;99.90
18823;DHT22;9540;51.550;7.980;2022-07-23T06:41:12;15.40;99.90
18823;DHT22;9540;51.550;7.980;2022-07-23T06:43:39;15.40;99.90
18823;DHT22;9540;51.550;7.980;2022-07-23T06:46:06;15.30;99.90
18823;DHT22;9540;51.550;7.980;2022-07-23T06:48:34;15.30;99.90
18823;DHT22;9540;51.550;7.980;2022-07-23T06:51:02;15.40;99.90
18823;DHT22;9540;51.550;7.980;2022-07-23T06:53:29;15.40;99.90
18823;DHT22;9540;51.550;7.980;2022-07-23T06:55:56;15.50;99.90
18823;DHT22;9540;51.550;7.980;2022-07-23T06:58:23;15.60;99.90
18823;DHT22;9540;51.550;7.980;2022-07-23T07:00:50;15.60;99.90
18823;DHT22;9540;51.550;7.980;2022-07-23T07:03:17;15.70;99.90
18823;DHT22;9540;51.550;7.980;2022-07-23T07:05:46;15.80;99.90
18823;DHT22;9540;51.550;7.980;2022-07-23T07:08:13;15.80;99.90
18823;DHT22;9540;51.550;7.980;2022-07-23T07:10:40;15.90;99.90
18823;DHT22;9540;51.550;7.980;2022-07-23T07:13:07;15.90;99.90
18823;DHT22;9540;51.550;7.980;2022-07-23T07:15:34;15.90;99.90
18823;DHT22;9540;51.550;7.980;2022-07-23T07:18:01;15.90;99.90
18823;DHT22;9540;51.550;7.980;2022-07-23T07:20:28;16.00;99.90
18823;DHT22;9540;51.550;7.980;2022-07-23T07:22:57;16.10;99.90
18823;DHT22;9540;51.550;7.980;2022-07-23T07:25:24;16.10;99.90
18823;DHT22;9540;51.550;7.980;2022-07-23T07:27:51;16.10;99.90
18823;DHT22;9540;51.550;7.980;2022-07-23T07:30:18;16.10;99.90
18823;DHT22;9540;51.550;7.980;2022-07-23T07:32:45;16.00;99.90
18823;DHT22;9540;51.550;7.980;2022-07-23T07:35:12;16.00;99.90
18823;DHT22;9540;51.550;7.980;2022-07-23T07:37:39;16.00;99.90
18823;DHT22;9540;51.550;7.980;2022-07-23T07:40:09;15.80;99.90
18823;DHT22;9540;51.550;7.980;2022-07-23T07:42:44;15.90;99.90
18823;DHT22;9540;51.550;7.980;2022-07-23T07:45:11;16.00;99.90
18823;DHT22;9540;51.550;7.980;2022-07-23T07:47:38;16.10;99.90
18823;DHT22;9540;51.550;7.980;2022-07-23T07:50:06;16.20;99.90
18823;DHT22;9540;51.550;7.980;2022-07-23T07:52:34;16.30;99.90
18823;DHT22;9540;51.550;7.980;2022-07-23T07:55:02;16.50;99.90
18823;DHT22;9540;51.550;7.980;2022-07-23T07:57:30;16.40;99.90
18823;DHT22;9540;51.550;7.980;2022-07-23T07:59:57;16.50;99.90
18823;DHT22;9540;51.550;7.980;2022-07-23T08:02:25;16.50;99.90
18823;DHT22;9540;51.550;7.980;2022-07-23T08:04:52;16.50;99.90
18823;DHT22;9540;51.550;7.980;2022-07-23T08:07:19;16.40;99.90
18823;DHT22;9540;51.550;7.980;2022-07-23T08:09:46;16.50;99.90
18823;DHT22;9540;51.550;7.980;2022-07-23T08:12:13;16.40;99.90
18823;DHT22;9540;51.550;7.980;2022-07-23T08:14:41;16.70;99.90
18823;DHT22;9540;51.550;7.980;2022-07-23T08:17:10;16.80;99.90
18823;DHT22;9540;51.550;7.980;2022-07-23T08:19:37;17.00;99.90
18823;DHT22;9540;51.550;7.980;2022-07-23T08:22:04;17.20;99.90
18823;DHT22;9540;51.550;7.980;2022-07-23T08:24:31;17.10;99.90
18823;DHT22;9540;51.550;7.980;2022-07-23T08:26:58;17.00;99.90
18823;DHT22;9540;51.550;7.980;2022-07-23T08:29:25;16.90;99.90
18823;DHT22;9540;51.550;7.980;2022-07-23T08:31:53;17.00;99.90
18823;DHT22;9540;51.550;7.980;2022-07-23T08:34:20;17.00;99.90
18823;DHT22;9540;51.550;7.980;2022-07-23T08:36:47;17.10;99.90
18823;DHT22;9540;51.550;7.980;2022-07-23T08:39:14;16.90;99.90
18823;DHT22;9540;51.550;7.980;2022-07-23T08:41:41;16.90;99.90
18823;DHT22;9540;51.550;7.980;2022-07-23T08:44:09;17.00;99.90
18823;DHT22;9540;51.550;7.980;2022-07-23T08:46:36;17.20;99.90
18823;DHT22;9540;51.550;7.980;2022-07-23T08:49:06;17.30;99.90
18823;DHT22;9540;51.550;7.980;2022-07-23T08:51:34;17.40;99.90
18823;DHT22;9540;51.550;7.980;2022-07-23T08:54:01;17.60;99.90
18823;DHT22;9540;51.550;7.980;2022-07-23T08:56:28;17.50;99.90
18823;DHT22;9540;51.550;7.980;2022-07-23T08:58:55;17.50;99.90
18823;DHT22;9540;51.550;7.980;2022-07-23T09:01:22;17.50;99.90
18823;DHT22;9540;51.550;7.980;2022-07-23T09:03:49;17.50;99.90
18823;DHT22;9540;51.550;7.980;2022-07-23T09:06:17;17.60;99.90
18823;DHT22;9540;51.550;7.980;2022-07-23T09:08:44;17.60;99.90
18823;DHT22;9540;51.550;7.980;2022-07-23T09:11:13;17.80;99.90
18823;DHT22;9540;51.550;7.980;2022-07-23T09:13:42;17.80;99.90
18823;DHT22;9540;51.550;7.980;2022-07-23T09:16:13;17.90;99.90
18823;DHT22;9540;51.550;7.980;2022-07-23T09:18:44;17.50;99.90
18823;DHT22;9540;51.550;7.980;2022-07-23T09:21:18;17.50;99.90
18823;DHT22;9540;51.550;7.980;2022-07-23T09:23:47;17.60;99.90
18823;DHT22;9540;51.550;7.980;2022-07-23T09:26:33;17.70;99.90
18823;DHT22;9540;51.550;7.980;2022-07-23T09:29:04;17.60;99.90
18823;DHT22;9540;51.550;7.980;2022-07-23T09:34:21;17.80;99.90
18823;DHT22;9540;51.550;7.980;2022-07-23T09:36:52;17.80;99.90
18823;DHT22;9540;51.550;7.980;2022-07-23T09:39:26;17.70;99.90
18823;DHT22;9540;51.550;7.980;2022-07-23T09:41:54;17.90;99.90
18823;DHT22;9540;51.550;7.980;2022-07-23T09:44:21;18.00;99.90
18823;DHT22;9540;51.550;7.980;2022-07-23T09:46:50;18.30;99.90
18823;DHT22;9540;51.550;7.980;2022-07-23T09:49:19;18.60;99.90
18823;DHT22;9540;51.550;7.980;2022-07-23T09:51:50;18.80;99.90
18823;DHT22;9540;51.550;7.980;2022-07-23T09:54:26;19.00;99.90
18823;DHT22;9540;51.550;7.980;2022-07-23T09:56:55;19.20;99.90
18823;DHT22;9540;51.550;7.980;2022-07-23T09:59:24;19.30;99.90
18823;DHT22;9540;51.550;7.980;2022-07-23T10:01:53;19.50;99.90
18823;DHT22;9540;51.550;7.980;2022-07-23T10:04:21;19.70;99.90
18823;DHT22;9540;51.550;7.980;2022-07-23T10:06:52;19.70;99.90
18823;DHT22;9540;51.550;7.980;2022-07-23T10:09:24;19.60;99.90
18823;DHT22;9540;51.550;7.980;2022-07-23T10:11:55;19.60;99.90
18823;DHT22;9540;51.550;7.980;2022-07-23T10:14:26;19.70;99.90
18823;DHT22;9540;51.550;7.980;2022-07-23T10:16:53;19.90;99.90
18823;DHT22;9540;51.550;7.980;2022-07-23T10:19:20;19.90;99.90
18823;DHT22;9540;51.550;7.980;2022-07-23T10:21:56;19.90;99.90
18823;DHT22;9540;51.550;7.980;2022-07-23T10:24:50;20.00;99.90
18823;DHT22;9540;51.550;7.980;2022-07-23T10:27:39;20.10;99.90
18823;DHT22;9540;51.550;7.980;2022-07-23T10:30:12;20.00;99.90
18823;DHT22;9540;51.550;7.980;2022-07-23T10:32:49;20.00;99.90
18823;DHT22;9540;51.550;7.980;2022-07-23T10:35:24;20.10;99.90
18823;DHT22;9540;51.550;7.980;2022-07-23T10:37:59;20.10;99.90
18823;DHT22;9540;51.550;7.980;2022-07-23T10:40:28;20.10;99.90
18823;DHT22;9540;51.550;7.980;2022-07-23T10:42:59;20.40;99.90
18823;DHT22;9540;51.550;7.980;2022-07-23T10:45:31;20.70;99.90
18823;DHT22;9540;51.550;7.980;2022-07-23T10:48:13;20.90;99.90
18823;DHT22;9540;51.550;7.980;2022-07-23T10:50:41;20.80;99.90
18823;DHT22;9540;51.550;7.980;2022-07-23T10:53:15;20.50;99.90
18823;DHT22;9540;51.550;7.980;2022-07-23T10:55:47;20.40;99.90
18823;DHT22;9540;51.550;7.980;2022-07-23T10:58:19;20.30;99.90
18823;DHT22;9540;51.550;7.980;2022-07-23T11:00:46;20.30;99.90
18823;DHT22;9540;51.550;7.980;2022-07-23T11:03:33;20.40;99.90
18823;DHT22;9540;51.550;7.980;2022-07-23T11:06:03;20.60;99.90
18823;DHT22;9540;51.550;7.980;2022-07-23T11:08:32;20.90;99.90
18823;DHT22;9540;51.550;7.980;2022-07-23T11:11:10;21.00;99.90
18823;DHT22;9540;51.550;7.980;2022-07-23T11:13:47;21.20;99.90
18823;DHT22;9540;51.550;7.980;2022-07-23T11:16:22;21.40;99.90
18823;DHT22;9540;51.550;7.980;2022-07-23T11:19:04;21.60;99.90
18823;DHT22;9540;51.550;7.980;2022-07-23T11:21:49;21.80;99.90
18823;DHT22;9540;51.550;7.980;2022-07-23T11:24:22;22.00;99.90
18823;DHT22;9540;51.550;7.980;2022-07-23T11:27:00;21.90;99.90
18823;DHT22;9540;51.550;7.980;2022-07-23T11:29:41;21.90;99.90
18823;DHT22;9540;51.550;7.980;2022-07-23T11:32:31;22.10;99.90
18823;DHT22;9540;51.550;7.980;2022-07-23T11:34:59;22.00;99.90
18823;DHT22;9540;51.550;7.980;2022-07-23T11:37:29;21.80;99.90
18823;DHT22;9540;51.550;7.980;2022-07-23T11:39:59;21.70;99.90
18823;DHT22;9540;51.550;7.980;2022-07-23T11:42:26;21.70;99.90
18823;DHT22;9540;51.550;7.980;2022-07-23T11:44:54;21.90;99.90
18823;DHT22;9540;51.550;7.980;2022-07-23T11:47:23;22.00;99.90
18823;DHT22;9540;51.550;7.980;2022-07-23T11:49:53;22.20;99.90
18823;DHT22;9540;51.550;7.980;2022-07-23T11:52:21;22.30;99.90
18823;DHT22;9540;51.550;7.980;2022-07-23T11:54:50;22.50;99.90
18823;DHT22;9540;51.550;7.980;2022-07-23T11:57:20;22.70;99.90
18823;DHT22;9540;51.550;7.980;2022-07-23T11:59:51;22.80;99.90
18823;DHT22;9540;51.550;7.980;2022-07-23T12:02:20;22.90;99.90
18823;DHT22;9540;51.550;7.980;2022-07-23T12:04:49;23.00;99.90
18823;DHT22;9540;51.550;7.980;2022-07-23T12:07:27;23.10;99.90
18823;DHT22;9540;51.550;7.980;2022-07-23T12:09:55;22.90;99.90
18823;DHT22;9540;51.550;7.980;2022-07-23T12:12:25;22.60;99.90
18823;DHT22;9540;51.550;7.980;2022-07-23T12:14:54;22.70;99.90
18823;DHT22;9540;51.550;7.980;2022-07-23T12:17:28;22.90;99.90
18823;DHT22;9540;51.550;7.980;2022-07-23T12:19:57;23.00;99.90
18823;DHT22;9540;51.550;7.980;2022-07-23T12:22:25;23.00;99.90
18823;DHT22;9540;51.550;7.980;2022-07-23T12:24:54;22.90;99.90
18823;DHT22;9540;51.550;7.980;2022-07-23T12:27:21;23.00;99.90
18823;DHT22;9540;51.550;7.980;2022-07-23T12:29:50;23.00;99.90
18823;DHT22;9540;51.550;7.980;2022-07-23T12:32:22;23.00;99.90
18823;DHT22;9540;51.550;7.980;2022-07-23T12:34:51;23.20;99.90
18823;DHT22;9540;51.550;7.980;2022-07-23T12:37:29;23.30;99.90
18823;DHT22;9540;51.550;7.980;2022-07-23T12:39:57;23.20;99.90
18823;DHT22;9540;51.550;7.980;2022-07-23T12:42:24;23.30;99.90
18823;DHT22;9540;51.550;7.980;2022-07-23T12:45:08;23.10;99.90
18823;DHT22;9540;51.550;7.980;2022-07-23T12:48:01;23.30;99.90
18823;DHT22;9540;51.550;7.980;2022-07-23T12:50:44;23.30;99.90
18823;DHT22;9540;51.550;7.980;2022-07-23T12:53:13;23.40;99.90
18823;DHT22;9540;51.550;7.980;2022-07-23T12:55:41;23.40;99.90
18823;DHT22;9540;51.550;7.980;2022-07-23T12:58:14;23.60;99.90
18823;DHT22;9540;51.550;7.980;2022-07-23T13:03:36;23.70;99.90
18823;DHT22;9540;51.550;7.980;2022-07-23T13:06:06;23.50;99.90
18823;DHT22;9540;51.550;7.980;2022-07-23T13:08:33;23.40;99.90
18823;DHT22;9540;51.550;7.980;2022-07-23T13:11:01;23.60;99.90
18823;DHT22;9540;51.550;7.980;2022-07-23T13:13:30;23.70;99.90
18823;DHT22;9540;51.550;7.980;2022-07-23T13:16:00;23.80;99.90
18823;DHT22;9540;51.550;7.980;2022-07-23T13:18:28;23.90;99.90
18823;DHT22;9540;51.550;7.980;2022-07-23T13:20:55;23.90;99.90
18823;DHT22;9540;51.550;7.980;2022-07-23T13:23:22;23.90;99.90
18823;DHT22;9540;51.550;7.980;2022-07-23T13:25:50;24.10;99.90
18823;DHT22;9540;51.550;7.980;2022-07-23T13:28:18;24.20;99.90
18823;DHT22;9540;51.550;7.980;2022-07-23T13:30:46;24.10;99.90
18823;DHT22;9540;51.550;7.980;2022-07-23T13:33:17;24.00;99.90
18823;DHT22;9540;51.550;7.980;2022-07-23T13:35:44;24.10;99.90
18823;DHT22;9540;51.550;7.980;2022-07-23T13:38:11;24.10;99.90
18823;DHT22;9540;51.550;7.980;2022-07-23T13:40:40;24.20;99.90
18823;DHT22;9540;51.550;7.980;2022-07-23T13:43:08;24.10;99.90
18823;DHT22;9540;51.550;7.980;2022-07-23T13:45:35;24.10;99.90
18823;DHT22;9540;51.550;7.980;2022-07-23T13:48:03;24.00;99.90
18823;DHT22;9540;51.550;7.980;2022-07-23T13:50:32;24.00;99.90
18823;DHT22;9540;51.550;7.980;2022-07-23T13:53:02;24.00;99.90
18823;DHT22;9540;51.550;7.980;2022-07-23T13:55:29;24.20;99.90
18823;DHT22;9540;51.550;7.980;2022-07-23T13:57:56;24.30;99.90
18823;DHT22;9540;51.550;7.980;2022-07-23T14:00:23;24.30;99.90
18823;DHT22;9540;51.550;7.980;2022-07-23T14:02:51;24.20;99.90
18823;DHT22;9540;51.550;7.980;2022-07-23T14:05:18;24.20;99.90
18823;DHT22;9540;51.550;7.980;2022-07-23T14:07:46;24.30;99.90
18823;DHT22;9540;51.550;7.980;2022-07-23T14:10:16;24.40;99.90
18823;DHT22;9540;51.550;7.980;2022-07-23T14:12:44;24.50;99.90
18823;DHT22;9540;51.550;7.980;2022-07-23T14:15:11;24.40;99.90
18823;DHT22;9540;51.550;7.980;2022-07-23T14:17:39;24.50;99.90
18823;DHT22;9540;51.550;7.980;2022-07-23T14:20:07;24.60;99.90
18823;DHT22;9540;51.550;7.980;2022-07-23T14:22:35;24.70;99.90
18823;DHT22;9540;51.550;7.980;2022-07-23T14:25:05;24.50;99.90
18823;DHT22;9540;51.550;7.980;2022-07-23T14:27:33;24.10;99.90
18823;DHT22;9540;51.550;7.980;2022-07-23T14:30:01;23.80;99.90
18823;DHT22;9540;51.550;7.980;2022-07-23T14:32:28;23.70;99.90
18823;DHT22;9540;51.550;7.980;2022-07-23T14:34:54;23.70;99.90
18823;DHT22;9540;51.550;7.980;2022-07-23T14:37:21;23.80;99.90
18823;DHT22;9540;51.550;7.980;2022-07-23T14:39:50;23.90;99.90
18823;DHT22;9540;51.550;7.980;2022-07-23T14:42:20;24.10;99.90
18823;DHT22;9540;51.550;7.980;2022-07-23T14:44:47;24.20;99.90
18823;DHT22;9540;51.550;7.980;2022-07-23T14:47:14;24.30;99.90
18823;DHT22;9540;51.550;7.980;2022-07-23T14:49:41;24.50;99.90
18823;DHT22;9540;51.550;7.980;2022-07-23T14:52:08;24.60;99.90
18823;DHT22;9540;51.550;7.980;2022-07-23T14:54:35;24.60;99.90
18823;DHT22;9540;51.550;7.980;2022-07-23T14:57:03;24.50;99.90
18823;DHT22;9540;51.550;7.980;2022-07-23T14:59:34;24.40;99.90
18823;DHT22;9540;51.550;7.980;2022-07-23T15:02:01;24.40;99.90
18823;DHT22;9540;51.550;7.980;2022-07-23T15:04:28;24.50;99.90
18823;DHT22;9540;51.550;7.980;2022-07-23T15:06:55;24.30;99.90
18823;DHT22;9540;51.550;7.980;2022-07-23T15:09:22;24.30;99.90
18823;DHT22;9540;51.550;7.980;2022-07-23T15:11:49;24.30;99.90
18823;DHT22;9540;51.550;7.980;2022-07-23T15:14:16;24.30;99.90
18823;DHT22;9540;51.550;7.980;2022-07-23T15:16:44;24.40;99.90
18823;DHT22;9540;51.550;7.980;2022-07-23T15:19:11;24.40;99.90
18823;DHT22;9540;51.550;7.980;2022-07-23T15:21:38;24.60;99.90
18823;DHT22;9540;51.550;7.980;2022-07-23T15:24:06;24.70;99.90
18823;DHT22;9540;51.550;7.980;2022-07-23T15:26:33;24.80;99.90
18823;DHT22;9540;51.550;7.980;2022-07-23T15:28:59;24.80;99.90
18823;DHT22;9540;51.550;7.980;2022-07-23T15:31:28;24.60;99.70
18823;DHT22;9540;51.550;7.980;2022-07-23T15:33:56;24.30;99.90
18823;DHT22;9540;51.550;7.980;2022-07-23T15:36:23;24.00;99.90
18823;DHT22;9540;51.550;7.980;2022-07-23T15:38:50;23.80;99.90
18823;DHT22;9540;51.550;7.980;2022-07-23T15:41:17;23.70;99.90
18823;DHT22;9540;51.550;7.980;2022-07-23T15:43:44;23.60;99.90
18823;DHT22;9540;51.550;7.980;2022-07-23T15:46:11;23.70;99.90
18823;DHT22;9540;51.550;7.980;2022-07-23T15:48:38;24.00;99.90
18823;DHT22;9540;51.550;7.980;2022-07-23T15:51:07;24.10;99.90
18823;DHT22;9540;51.550;7.980;2022-07-23T15:53:34;24.20;99.90
18823;DHT22;9540;51.550;7.980;2022-07-23T15:56:02;24.40;99.90
18823;DHT22;9540;51.550;7.980;2022-07-23T15:58:29;24.60;99.90